Time;durP1;ratioP1;P1;durP2;ratioP2;P2;SDS_P1;SDS_P2;PMS_P1;PMS_P2;Temp;Humidity;BMP_temperature;BMP_pressure;BME280_temperature;BME280_humidity;BME280_pressure;Samples;Min_cycle;Max_cycle;Signal;HPM_P1;HPM_P2
2024/01/13 00:02:02;;;;;;;9.53;7.60;;;;;;;;;;5019299;28;20419;-63
2024/01/13 00:04:27;;;;;;;10.17;7.83;;;;;;;;;;5021310;28;20410;-63
2024/01/13 00:06:53;;;;;;;8.63;7.40;;;;;;;;;;5021594;28;20419;-62
2024/01/13 00:09:18;;;;;;;9.55;7.07;;;;;;;;;;5020673;28;20520;-62
2024/01/13 00:11:43;;;;;;;8.87;7.67;;;;;;;;;;5029356;28;20406;-63
2024/01/13 00:14:09;;;;;;;8.87;7.17;;;;;;;;;;5050595;28;20527;-63
2024/01/13 00:16:34;;;;;;;9.10;7.37;;;;;;;;;;5050430;28;20400;-62
2024/01/13 00:18:59;;;;;;;8.90;7.00;;;;;;;;;;5050785;28;20546;-62
2024/01/13 00:21:24;;;;;;;9.77;7.57;;;;;;;;;;5049987;28;20382;-62
2024/01/13 00:23:50;;;;;;;11.17;8.57;;;;;;;;;;5051028;28;20396;-62
2024/01/13 00:26:15;;;;;;;8.73;6.93;;;;;;;;;;5051188;28;20480;-62
2024/01/13 00:28:40;;;;;;;9.50;7.37;;;;;;;;;;5050209;28;20390;-62
2024/01/13 00:31:05;;;;;;;9.10;6.83;;;;;;;;;;5050689;28;20398;-63
2024/01/13 00:33:31;;;;;;;8.37;6.73;;;;;;;;;;5051108;28;20802;-62
2024/01/13 00:35:56;;;;;;;7.47;6.20;;;;;;;;;;5050346;28;20964;-62
2024/01/13 00:38:21;;;;;;;7.78;6.32;;;;;;;;;;5050301;28;20395;-63
2024/01/13 00:40:47;;;;;;;10.23;7.13;;;;;;;;;;5051153;28;20402;-62
2024/01/13 00:43:12;;;;;;;8.37;6.37;;;;;;;;;;5049850;28;20406;-62
2024/01/13 00:45:37;;;;;;;8.60;6.80;;;;;;;;;;5050913;28;20468;-62
2024/01/13 00:48:03;;;;;;;8.55;6.80;;;;;;;;;;5050231;28;20468;-63
2024/01/13 00:50:29;;;;;;;8.70;6.83;;;;;;;;;;5050331;28;20469;-63
2024/01/13 00:52:54;;;;;;;8.02;6.53;;;;;;;;;;5050704;28;20916;-62
2024/01/13 00:55:19;;;;;;;8.70;6.63;;;;;;;;;;5050597;28;20480;-62
2024/01/13 00:57:44;;;;;;;7.97;6.40;;;;;;;;;;5049986;28;20904;-62
2024/01/13 01:00:10;;;;;;;8.37;6.80;;;;;;;;;;5050488;28;20406;-62
2024/01/13 01:02:36;;;;;;;9.82;7.70;;;;;;;;;;5050916;28;20455;-62
2024/01/13 01:05:01;;;;;;;8.20;6.53;;;;;;;;;;5049359;28;20386;-63
2024/01/13 01:07:26;;;;;;;9.30;6.97;;;;;;;;;;5050661;28;20457;-62
2024/01/13 01:09:52;;;;;;;8.93;7.13;;;;;;;;;;5050859;28;20417;-62
2024/01/13 01:12:17;;;;;;;9.33;7.10;;;;;;;;;;5048794;28;20401;-62
2024/01/13 01:14:42;;;;;;;11.23;8.10;;;;;;;;;;5050329;28;20460;-62
2024/01/13 01:17:08;;;;;;;11.27;8.27;;;;;;;;;;5050096;28;20500;-62
2024/01/13 01:19:33;;;;;;;12.07;9.57;;;;;;;;;;5049366;28;20397;-62
2024/01/13 01:21:58;;;;;;;10.67;8.53;;;;;;;;;;5052646;28;20409;-62
2024/01/13 01:24:23;;;;;;;12.93;8.90;;;;;;;;;;5053861;28;20373;-62
2024/01/13 01:26:49;;;;;;;11.70;8.43;;;;;;;;;;5053862;28;20478;-62
2024/01/13 01:29:14;;;;;;;11.67;8.90;;;;;;;;;;5053818;28;20386;-62
2024/01/13 01:31:39;;;;;;;11.17;9.33;;;;;;;;;;5053850;28;20389;-62
2024/01/13 01:34:04;;;;;;;10.83;8.60;;;;;;;;;;5053874;28;20893;-63
2024/01/13 01:36:30;;;;;;;11.47;9.20;;;;;;;;;;5054511;28;20385;-62
2024/01/13 01:38:55;;;;;;;13.07;9.63;;;;;;;;;;5053168;28;20756;-62
2024/01/13 01:41:21;;;;;;;12.83;9.97;;;;;;;;;;5053873;28;20397;-62
2024/01/13 01:43:46;;;;;;;12.97;10.83;;;;;;;;;;5054054;28;20397;-62
2024/01/13 01:46:13;;;;;;;13.85;10.77;;;;;;;;;;5052993;28;20395;-62
2024/01/13 01:48:38;;;;;;;14.65;11.65;;;;;;;;;;5054239;28;20458;-62
2024/01/13 01:51:05;;;;;;;13.80;11.13;;;;;;;;;;5035997;28;20858;-63
2024/01/13 01:53:30;;;;;;;16.13;12.23;;;;;;;;;;5053114;28;20445;-62
2024/01/13 01:55:56;;;;;;;14.45;11.43;;;;;;;;;;5054084;28;20402;-62
2024/01/13 01:58:22;;;;;;;16.10;11.77;;;;;;;;;;5035733;28;20381;-63
2024/01/13 02:00:47;;;;;;;16.47;13.10;;;;;;;;;;5053303;28;20484;-62
2024/01/13 02:03:12;;;;;;;15.73;12.30;;;;;;;;;;5053602;28;20885;-63
2024/01/13 02:05:37;;;;;;;17.63;12.37;;;;;;;;;;5053872;28;20402;-62
2024/01/13 02:08:03;;;;;;;16.37;12.20;;;;;;;;;;5034920;28;20491;-63
2024/01/13 02:10:28;;;;;;;14.00;11.75;;;;;;;;;;5036165;28;20389;-63
2024/01/13 02:12:54;;;;;;;15.13;11.83;;;;;;;;;;5054169;28;20886;-63
2024/01/13 02:15:19;;;;;;;16.37;12.57;;;;;;;;;;5052653;28;20397;-63
2024/01/13 02:17:44;;;;;;;15.57;11.90;;;;;;;;;;5053789;28;20495;-63
2024/01/13 02:20:10;;;;;;;15.80;12.77;;;;;;;;;;5052728;28;20459;-63
2024/01/13 02:22:36;;;;;;;17.70;13.57;;;;;;;;;;5052784;28;20496;-62
2024/01/13 02:25:02;;;;;;;15.73;12.90;;;;;;;;;;5052712;28;20485;-63
2024/01/13 02:27:27;;;;;;;14.53;12.27;;;;;;;;;;5053698;28;20390;-63
2024/01/13 02:29:53;;;;;;;16.60;12.90;;;;;;;;;;5052571;28;20394;-62
2024/01/13 02:32:18;;;;;;;14.70;10.80;;;;;;;;;;5052159;28;20749;-63
2024/01/13 02:34:43;;;;;;;14.47;11.70;;;;;;;;;;5052721;28;20481;-62
2024/01/13 02:37:09;;;;;;;13.33;10.83;;;;;;;;;;5052070;28;20393;-63
2024/01/13 02:39:34;;;;;;;13.07;10.03;;;;;;;;;;5053200;28;20404;-62
2024/01/13 02:41:59;;;;;;;13.57;10.33;;;;;;;;;;5052455;28;20905;-63
2024/01/13 02:44:24;;;;;;;13.30;10.23;;;;;;;;;;5052440;28;20385;-63
2024/01/13 02:46:50;;;;;;;14.83;10.30;;;;;;;;;;5053195;28;20829;-63
2024/01/13 02:49:15;;;;;;;14.23;10.70;;;;;;;;;;5051705;28;20409;-63
2024/01/13 02:51:40;;;;;;;12.30;9.60;;;;;;;;;;5035415;28;20394;-62
2024/01/13 02:54:06;;;;;;;11.33;9.03;;;;;;;;;;5052162;28;20408;-64
2024/01/13 02:56:33;;;;;;;12.00;9.40;;;;;;;;;;5052265;28;20397;-62
2024/01/13 02:58:58;;;;;;;12.35;9.32;;;;;;;;;;5052799;28;21022;-62
2024/01/13 03:01:24;;;;;;;12.20;9.37;;;;;;;;;;5052133;28;20410;-63
2024/01/13 03:03:49;;;;;;;13.50;10.23;;;;;;;;;;5052401;28;20429;-63
2024/01/13 03:06:14;;;;;;;11.87;9.10;;;;;;;;;;5052116;28;20447;-63
2024/01/13 03:08:40;;;;;;;10.83;8.57;;;;;;;;;;5052714;28;20480;-62
2024/01/13 03:11:05;;;;;;;11.20;8.73;;;;;;;;;;5051337;28;20390;-63
2024/01/13 03:13:30;;;;;;;13.27;9.43;;;;;;;;;;5052579;28;20393;-62
2024/01/13 03:15:55;;;;;;;12.40;9.73;;;;;;;;;;5052548;28;20814;-62
2024/01/13 03:18:21;;;;;;;10.80;8.80;;;;;;;;;;5031627;28;20398;-62
2024/01/13 03:20:46;;;;;;;11.10;8.55;;;;;;;;;;5022119;28;20423;-62
2024/01/13 03:23:11;;;;;;;11.10;8.80;;;;;;;;;;5024463;28;21159;-62
2024/01/13 03:25:37;;;;;;;11.50;9.10;;;;;;;;;;5019798;28;20492;-62
2024/01/13 03:28:02;;;;;;;11.33;9.23;;;;;;;;;;5033359;28;20394;-62
2024/01/13 03:30:27;;;;;;;11.65;8.75;;;;;;;;;;5033360;28;20917;-62
2024/01/13 03:32:52;;;;;;;10.93;8.60;;;;;;;;;;5036946;28;20398;-62
2024/01/13 03:35:18;;;;;;;11.37;8.57;;;;;;;;;;5029203;28;20414;-63
2024/01/13 03:37:43;;;;;;;11.37;8.43;;;;;;;;;;5022311;28;20407;-62
2024/01/13 03:40:08;;;;;;;10.20;8.27;;;;;;;;;;5002716;28;20869;-62
2024/01/13 03:42:34;;;;;;;10.60;8.17;;;;;;;;;;5022269;28;20460;-62
2024/01/13 03:44:59;;;;;;;10.90;8.50;;;;;;;;;;5021372;28;20411;-62
2024/01/13 03:47:24;;;;;;;10.37;8.57;;;;;;;;;;5019840;28;20407;-62
2024/01/13 03:49:50;;;;;;;12.38;9.68;;;;;;;;;;5014166;28;20402;-62
2024/01/13 03:52:15;;;;;;;14.10;10.70;;;;;;;;;;5020857;28;20407;-62
2024/01/13 03:54:41;;;;;;;13.00;9.50;;;;;;;;;;5014081;28;20395;-62
2024/01/13 03:57:06;;;;;;;12.48;9.77;;;;;;;;;;5040480;28;20468;-62
2024/01/13 03:59:32;;;;;;;12.90;10.03;;;;;;;;;;5040640;28;20412;-62
2024/01/13 04:01:57;;;;;;;12.03;9.50;;;;;;;;;;5028460;28;20417;-62
2024/01/13 04:04:22;;;;;;;13.03;10.70;;;;;;;;;;5021671;28;20403;-62
2024/01/13 04:06:48;;;;;;;14.27;10.87;;;;;;;;;;5020721;28;20407;-62
2024/01/13 04:09:13;;;;;;;16.00;11.70;;;;;;;;;;5040726;28;20504;-62
2024/01/13 04:11:39;;;;;;;16.17;12.13;;;;;;;;;;5034881;28;20657;-62
2024/01/13 04:14:04;;;;;;;15.57;11.70;;;;;;;;;;5032102;28;20432;-62
2024/01/13 04:16:30;;;;;;;15.27;11.40;;;;;;;;;;5032992;28;20439;-62
2024/01/13 04:18:55;;;;;;;15.00;11.17;;;;;;;;;;5028023;28;20434;-62
2024/01/13 04:21:20;;;;;;;15.27;11.40;;;;;;;;;;5019710;28;20399;-62
2024/01/13 04:23:47;;;;;;;17.40;13.10;;;;;;;;;;5039544;28;21343;-62
2024/01/13 04:26:13;;;;;;;16.57;13.03;;;;;;;;;;5030034;28;20911;-62
2024/01/13 04:28:38;;;;;;;17.03;12.70;;;;;;;;;;5040260;28;20389;-62
2024/01/13 04:31:04;;;;;;;17.65;13.30;;;;;;;;;;5040529;28;20478;-62
2024/01/13 04:33:30;;;;;;;16.38;12.70;;;;;;;;;;5037282;28;20385;-62
2024/01/13 04:35:55;;;;;;;18.33;13.40;;;;;;;;;;5032408;28;21089;-62
2024/01/13 04:38:20;;;;;;;18.47;14.10;;;;;;;;;;5032091;28;20397;-62
2024/01/13 04:40:47;;;;;;;16.90;13.73;;;;;;;;;;5036235;28;20748;-62
2024/01/13 04:43:13;;;;;;;21.88;16.05;;;;;;;;;;5021732;28;20772;-62
2024/01/13 04:45:38;;;;;;;23.67;16.20;;;;;;;;;;5024877;28;20885;-62
2024/01/13 04:48:03;;;;;;;21.03;15.80;;;;;;;;;;5020860;28;20494;-62
2024/01/13 04:50:28;;;;;;;18.83;14.63;;;;;;;;;;5035690;28;20889;-62
2024/01/13 04:52:54;;;;;;;21.33;15.97;;;;;;;;;;5021383;28;20403;-62
2024/01/13 04:55:19;;;;;;;18.83;14.77;;;;;;;;;;5019131;28;20392;-62
2024/01/13 04:57:44;;;;;;;18.20;14.43;;;;;;;;;;5012177;28;20391;-62
2024/01/13 05:00:10;;;;;;;18.17;13.93;;;;;;;;;;5012492;28;20407;-63
2024/01/13 05:02:35;;;;;;;19.37;15.13;;;;;;;;;;5013079;28;21163;-62
2024/01/13 05:05:00;;;;;;;17.10;13.70;;;;;;;;;;5020029;28;20395;-63
2024/01/13 05:07:26;;;;;;;18.97;15.00;;;;;;;;;;5020929;28;20403;-62
2024/01/13 05:09:51;;;;;;;18.10;14.40;;;;;;;;;;5020324;28;20410;-62
2024/01/13 05:12:16;;;;;;;19.13;15.30;;;;;;;;;;5020114;28;20480;-62
2024/01/13 05:14:41;;;;;;;18.40;14.13;;;;;;;;;;5020993;28;20394;-62
2024/01/13 05:17:07;;;;;;;19.23;14.73;;;;;;;;;;5019574;28;20502;-62
2024/01/13 05:19:32;;;;;;;20.70;15.07;;;;;;;;;;5015648;28;20411;-62
2024/01/13 05:21:57;;;;;;;17.10;13.57;;;;;;;;;;5012416;28;20403;-62
2024/01/13 05:24:23;;;;;;;17.47;14.17;;;;;;;;;;5011432;28;20409;-62
2024/01/13 05:26:48;;;;;;;20.15;14.57;;;;;;;;;;5032190;28;20436;-62
2024/01/13 05:29:13;;;;;;;17.57;14.60;;;;;;;;;;5039695;28;20471;-62
2024/01/13 05:31:38;;;;;;;18.10;14.40;;;;;;;;;;5039371;28;20405;-62
2024/01/13 05:34:04;;;;;;;17.23;13.40;;;;;;;;;;5039755;28;20405;-62
2024/01/13 05:36:29;;;;;;;18.13;14.80;;;;;;;;;;5039846;28;20524;-62
2024/01/13 05:38:54;;;;;;;18.13;14.88;;;;;;;;;;5039723;28;20471;-62
2024/01/13 05:41:20;;;;;;;18.90;14.83;;;;;;;;;;5036167;28;20848;-62
2024/01/13 05:43:45;;;;;;;17.40;13.80;;;;;;;;;;5032079;28;21104;-62
2024/01/13 05:46:11;;;;;;;17.37;14.63;;;;;;;;;;5011389;28;20403;-62
2024/01/13 05:48:36;;;;;;;17.85;14.60;;;;;;;;;;5014874;28;20395;-62
2024/01/13 05:51:02;;;;;;;17.10;14.23;;;;;;;;;;5039598;28;20409;-62
2024/01/13 05:53:28;;;;;;;14.00;11.93;;;;;;;;;;5039191;28;20485;-62
2024/01/13 05:55:53;;;;;;;14.55;12.27;;;;;;;;;;5040058;28;20459;-62
2024/01/13 05:58:19;;;;;;;13.93;12.25;;;;;;;;;;5039256;28;20753;-62
2024/01/13 06:00:44;;;;;;;15.73;13.03;;;;;;;;;;5036942;28;20417;-62
2024/01/13 06:03:09;;;;;;;15.97;13.53;;;;;;;;;;5019205;28;20443;-62
2024/01/13 06:05:35;;;;;;;16.87;14.20;;;;;;;;;;5012767;28;20391;-62
2024/01/13 06:08:00;;;;;;;17.25;14.60;;;;;;;;;;5012934;28;20399;-63
2024/01/13 06:10:26;;;;;;;15.83;13.23;;;;;;;;;;5016521;28;20688;-62
2024/01/13 06:12:51;;;;;;;19.95;15.25;;;;;;;;;;5023644;28;20411;-62
2024/01/13 06:15:17;;;;;;;15.43;13.20;;;;;;;;;;5022515;28;20395;-62
2024/01/13 06:17:42;;;;;;;18.67;14.70;;;;;;;;;;5024051;28;20415;-62
2024/01/13 06:20:08;;;;;;;17.23;14.90;;;;;;;;;;5022377;28;20576;-62
2024/01/13 06:22:34;;;;;;;16.88;14.27;;;;;;;;;;5037555;28;20403;-62
2024/01/13 06:24:59;;;;;;;15.87;13.23;;;;;;;;;;5023957;28;20391;-62
2024/01/13 06:27:24;;;;;;;16.58;12.80;;;;;;;;;;5036007;28;20417;-62
2024/01/13 06:29:50;;;;;;;16.10;13.47;;;;;;;;;;5026736;28;20411;-62
2024/01/13 06:32:15;;;;;;;19.33;15.17;;;;;;;;;;5015147;28;20533;-62
2024/01/13 06:34:40;;;;;;;17.70;14.07;;;;;;;;;;5020122;28;20403;-62
2024/01/13 06:37:06;;;;;;;15.77;13.63;;;;;;;;;;5023048;28;20430;-63
2024/01/13 06:39:31;;;;;;;17.47;14.57;;;;;;;;;;5023390;28;20435;-62
2024/01/13 06:41:56;;;;;;;17.53;14.50;;;;;;;;;;5022198;28;20495;-62
2024/01/13 06:44:21;;;;;;;17.70;14.40;;;;;;;;;;5022742;28;20384;-62
2024/01/13 06:46:47;;;;;;;17.47;14.67;;;;;;;;;;5023322;28;20435;-62
2024/01/13 06:49:12;;;;;;;18.07;14.87;;;;;;;;;;5019110;28;20917;-63
2024/01/13 06:51:37;;;;;;;17.87;15.17;;;;;;;;;;5015416;28;20403;-62
2024/01/13 06:54:03;;;;;;;18.50;15.43;;;;;;;;;;5014672;28;20406;-62
2024/01/13 06:56:28;;;;;;;16.42;14.27;;;;;;;;;;5035676;28;20386;-62
2024/01/13 06:58:53;;;;;;;18.73;14.73;;;;;;;;;;5024806;28;20407;-62
2024/01/13 07:01:19;;;;;;;18.17;15.00;;;;;;;;;;5030419;28;20714;-62
2024/01/13 07:03:44;;;;;;;15.17;13.10;;;;;;;;;;5022362;28;20403;-62
2024/01/13 07:06:09;;;;;;;13.97;12.47;;;;;;;;;;5022466;28;20539;-62
2024/01/13 07:08:35;;;;;;;16.27;13.73;;;;;;;;;;5030898;28;20751;-62
2024/01/13 07:11:00;;;;;;;17.10;14.27;;;;;;;;;;5021750;28;20474;-65
2024/01/13 07:13:25;;;;;;;15.83;13.13;;;;;;;;;;5015020;28;20402;-62
2024/01/13 07:15:50;;;;;;;15.90;13.53;;;;;;;;;;5017776;28;20759;-63
2024/01/13 07:18:16;;;;;;;15.37;12.70;;;;;;;;;;5040160;28;20408;-63
2024/01/13 07:20:41;;;;;;;16.70;14.17;;;;;;;;;;5049112;28;20433;-63
2024/01/13 07:23:06;;;;;;;15.40;13.10;;;;;;;;;;5051507;28;20418;-63
2024/01/13 07:25:33;;;;;;;16.47;13.67;;;;;;;;;;5030304;28;20421;-63
2024/01/13 07:27:59;;;;;;;18.65;14.30;;;;;;;;;;5048543;28;20412;-63
2024/01/13 07:30:24;;;;;;;14.77;12.57;;;;;;;;;;5050610;28;20393;-63
2024/01/13 07:32:50;;;;;;;15.67;12.67;;;;;;;;;;5034067;28;20401;-63
2024/01/13 07:35:15;;;;;;;14.63;12.13;;;;;;;;;;5051743;28;20742;-63
2024/01/13 07:37:40;;;;;;;15.27;12.27;;;;;;;;;;5051191;28;20852;-62
2024/01/13 07:40:06;;;;;;;14.40;11.83;;;;;;;;;;5051477;28;20519;-63
2024/01/13 07:42:32;;;;;;;16.08;12.48;;;;;;;;;;5051564;28;20916;-63
2024/01/13 07:44:58;;;;;;;15.35;11.55;;;;;;;;;;5050728;28;20389;-63
2024/01/13 07:47:23;;;;;;;16.83;12.37;;;;;;;;;;5033376;28;20396;-63
2024/01/13 07:49:48;;;;;;;16.07;12.20;;;;;;;;;;5051495;28;20397;-63
2024/01/13 07:52:14;;;;;;;15.37;12.00;;;;;;;;;;5054900;28;20410;-63
2024/01/13 07:54:39;;;;;;;17.40;12.57;;;;;;;;;;5064605;28;20894;-63
2024/01/13 07:57:04;;;;;;;18.67;13.73;;;;;;;;;;5054806;28;20397;-63
2024/01/13 07:59:29;;;;;;;15.60;11.90;;;;;;;;;;5063008;28;20385;-62
2024/01/13 08:01:55;;;;;;;15.93;12.13;;;;;;;;;;5051081;28;20893;-63
2024/01/13 08:04:20;;;;;;;16.03;12.47;;;;;;;;;;5051142;28;20772;-61
2024/01/13 08:06:45;;;;;;;21.60;15.30;;;;;;;;;;5051020;28;20394;-62
2024/01/13 08:09:11;;;;;;;16.33;12.30;;;;;;;;;;5050985;28;20455;-63
2024/01/13 08:11:36;;;;;;;17.37;12.83;;;;;;;;;;5051590;28;20889;-63
2024/01/13 08:14:01;;;;;;;18.63;13.27;;;;;;;;;;5050100;28;20476;-63
2024/01/13 08:16:27;;;;;;;20.27;13.60;;;;;;;;;;5051287;28;20393;-62
2024/01/13 08:18:52;;;;;;;18.52;13.07;;;;;;;;;;5050930;28;20476;-62
2024/01/13 08:21:18;;;;;;;18.57;12.67;;;;;;;;;;5051517;28;20908;-61
2024/01/13 08:23:43;;;;;;;18.48;13.38;;;;;;;;;;5031970;28;20398;-61
2024/01/13 08:26:08;;;;;;;19.50;14.03;;;;;;;;;;5053140;28;20956;-61
2024/01/13 08:28:34;;;;;;;18.37;13.40;;;;;;;;;;5056042;28;20404;-61
2024/01/13 08:30:59;;;;;;;18.83;13.23;;;;;;;;;;5050303;28;20802;-61
2024/01/13 08:33:24;;;;;;;20.13;14.20;;;;;;;;;;5015995;28;20458;-62
2024/01/13 08:35:50;;;;;;;20.40;14.55;;;;;;;;;;5057163;28;20528;-62
2024/01/13 08:38:15;;;;;;;20.83;13.77;;;;;;;;;;5047586;28;20761;-61
2024/01/13 08:40:41;;;;;;;19.23;14.20;;;;;;;;;;5032068;28;20401;-62
2024/01/13 08:43:08;;;;;;;19.37;13.67;;;;;;;;;;5049997;28;20404;-63
2024/01/13 08:45:33;;;;;;;18.88;13.77;;;;;;;;;;5050100;28;20904;-61
2024/01/13 08:47:59;;;;;;;18.37;13.13;;;;;;;;;;5052502;28;20870;-62
2024/01/13 08:50:24;;;;;;;17.77;13.05;;;;;;;;;;5050148;28;20872;-62
2024/01/13 08:52:54;;;;;;;17.23;12.50;;;;;;;;;;5050653;28;20800;-62
2024/01/13 08:55:19;;;;;;;16.20;11.60;;;;;;;;;;5045714;28;20407;-62
2024/01/13 08:57:44;;;;;;;16.17;11.27;;;;;;;;;;5050483;28;20488;-63
2024/01/13 09:00:10;;;;;;;11.83;8.83;;;;;;;;;;5049941;28;20959;-62
2024/01/13 09:02:35;;;;;;;12.90;9.37;;;;;;;;;;5049871;28;20440;-62
2024/01/13 09:05:00;;;;;;;12.57;8.43;;;;;;;;;;5050197;28;20389;-64
2024/01/13 09:07:26;;;;;;;11.43;8.30;;;;;;;;;;5050828;28;20404;-63
2024/01/13 09:09:51;;;;;;;11.10;7.90;;;;;;;;;;5049751;28;20397;-62
2024/01/13 09:12:16;;;;;;;11.23;7.80;;;;;;;;;;5050427;28;20472;-63
2024/01/13 09:14:44;;;;;;;10.67;7.30;;;;;;;;;;5050506;28;20425;-62
2024/01/13 09:17:09;;;;;;;11.30;7.73;;;;;;;;;;5056929;28;20443;-62
2024/01/13 09:19:35;;;;;;;9.90;7.03;;;;;;;;;;5050218;28;20444;-62
2024/01/13 09:22:00;;;;;;;11.10;7.20;;;;;;;;;;5050635;28;20769;-62
2024/01/13 09:24:25;;;;;;;9.67;7.10;;;;;;;;;;5049110;28;20414;-64
2024/01/13 09:26:51;;;;;;;9.47;7.33;;;;;;;;;;5050639;28;20496;-61
2024/01/13 09:29:16;;;;;;;11.10;7.28;;;;;;;;;;5031640;28;20792;-64
2024/01/13 09:31:42;;;;;;;10.40;7.60;;;;;;;;;;5049841;28;20404;-66
2024/01/13 09:34:07;;;;;;;9.57;7.53;;;;;;;;;;5049172;28;20800;-63
2024/01/13 09:36:33;;;;;;;11.90;8.00;;;;;;;;;;5050300;28;20425;-64
2024/01/13 09:38:58;;;;;;;11.63;8.00;;;;;;;;;;5049677;28;20405;-63
2024/01/13 09:41:24;;;;;;;10.80;8.00;;;;;;;;;;5049686;28;20402;-62
2024/01/13 09:43:53;;;;;;;11.13;8.13;;;;;;;;;;5053717;28;20404;-62
2024/01/13 09:46:19;;;;;;;12.18;8.88;;;;;;;;;;5052713;28;20404;-62
2024/01/13 09:48:44;;;;;;;11.60;8.07;;;;;;;;;;5054133;28;20405;-62
2024/01/13 09:51:09;;;;;;;10.20;7.20;;;;;;;;;;5034885;28;20920;-63
2024/01/13 09:53:34;;;;;;;10.37;7.40;;;;;;;;;;5054342;28;20474;-62
2024/01/13 09:56:02;;;;;;;10.43;7.60;;;;;;;;;;5053855;28;20434;-62
2024/01/13 09:58:27;;;;;;;10.18;7.07;;;;;;;;;;5035395;28;20405;-62
2024/01/13 10:00:53;;;;;;;12.15;8.05;;;;;;;;;;5053663;28;20490;-62
2024/01/13 10:03:19;;;;;;;9.90;7.37;;;;;;;;;;5053331;28;20409;-62
2024/01/13 10:05:44;;;;;;;10.50;7.20;;;;;;;;;;5052743;28;20401;-62
2024/01/13 10:08:10;;;;;;;9.10;6.90;;;;;;;;;;5053269;28;20872;-62
2024/01/13 10:10:35;;;;;;;9.43;7.13;;;;;;;;;;5036039;28;20887;-62
2024/01/13 10:13:00;;;;;;;11.17;8.00;;;;;;;;;;5052894;28;20389;-63
2024/01/13 10:15:26;;;;;;;9.90;7.27;;;;;;;;;;5053464;28;20952;-62
2024/01/13 10:17:51;;;;;;;9.80;7.00;;;;;;;;;;5053668;28;20439;-62
2024/01/13 10:20:17;;;;;;;10.00;7.27;;;;;;;;;;5051872;28;20432;-62
2024/01/13 10:22:42;;;;;;;8.30;6.50;;;;;;;;;;5053399;28;20444;-62
2024/01/13 10:25:08;;;;;;;9.88;7.03;;;;;;;;;;5053077;28;20398;-63
2024/01/13 10:27:35;;;;;;;10.03;7.00;;;;;;;;;;5052834;28;20459;-62
2024/01/13 10:30:00;;;;;;;9.68;7.43;;;;;;;;;;5052767;28;20491;-62
2024/01/13 10:32:27;;;;;;;9.38;6.63;;;;;;;;;;5053410;28;20385;-60
2024/01/13 10:34:53;;;;;;;9.18;6.35;;;;;;;;;;5052468;28;20405;-61
2024/01/13 10:37:18;;;;;;;9.27;6.40;;;;;;;;;;5052614;28;20425;-61
2024/01/13 10:39:43;;;;;;;8.37;6.30;;;;;;;;;;5053368;28;20490;-62
2024/01/13 10:42:09;;;;;;;8.17;5.90;;;;;;;;;;5051826;28;20492;-62
2024/01/13 10:44:39;;;;;;;9.93;7.05;;;;;;;;;;5053138;28;20401;-62
2024/01/13 10:47:04;;;;;;;9.33;6.57;;;;;;;;;;5052633;28;20389;-62
2024/01/13 10:49:31;;;;;;;9.70;7.10;;;;;;;;;;5052241;28;20435;-61
2024/01/13 10:51:57;;;;;;;23.52;13.07;;;;;;;;;;5052782;28;20398;-62
2024/01/13 10:54:25;;;;;;;45.03;24.17;;;;;;;;;;5050611;28;20370;-62
2024/01/13 10:56:51;;;;;;;15.80;12.25;;;;;;;;;;5052925;28;20401;-62
2024/01/13 10:59:17;;;;;;;12.80;9.15;;;;;;;;;;5052450;28;20401;-62
2024/01/13 11:01:42;;;;;;;10.00;8.13;;;;;;;;;;5051679;28;20401;-61
2024/01/13 11:04:07;;;;;;;10.00;7.63;;;;;;;;;;5052357;28;20398;-62
2024/01/13 11:06:32;;;;;;;11.37;8.03;;;;;;;;;;5052291;28;20476;-62
2024/01/13 11:08:58;;;;;;;11.07;8.10;;;;;;;;;;5051343;28;20409;-61
2024/01/13 11:11:24;;;;;;;11.43;8.80;;;;;;;;;;5051885;28;20430;-62
2024/01/13 11:13:50;;;;;;;47.50;43.08;;;;;;;;;;5034983;28;20404;-61
2024/01/13 11:16:17;;;;;;;28.23;25.60;;;;;;;;;;5051197;28;20398;-61
2024/01/13 11:18:47;;;;;;;18.35;16.17;;;;;;;;;;5052293;28;20398;-62
2024/01/13 11:21:13;;;;;;;15.80;13.07;;;;;;;;;;5051679;28;20413;-62
2024/01/13 11:23:44;;;;;;;14.90;12.63;;;;;;;;;;5051895;28;20413;-61
2024/01/13 11:26:10;;;;;;;18.53;16.07;;;;;;;;;;5051826;28;20493;-62
2024/01/13 11:28:47;;;;;;;16.40;14.53;;;;;;;;;;5052188;28;20477;-61
2024/01/13 11:31:29;;;;;;;36.55;33.35;;;;;;;;;;5050925;28;20420;-61
2024/01/13 11:33:55;;;;;;;28.35;25.67;;;;;;;;;;5052218;28;20413;-62
2024/01/13 11:36:20;;;;;;;23.67;21.37;;;;;;;;;;5051251;28;20738;-61
2024/01/13 11:38:45;;;;;;;23.43;21.03;;;;;;;;;;5051397;28;20425;-61
2024/01/13 11:41:12;;;;;;;23.27;21.07;;;;;;;;;;5051496;28;20410;-62
2024/01/13 11:43:39;;;;;;;18.73;16.77;;;;;;;;;;5051429;28;20404;-61
2024/01/13 11:46:05;;;;;;;27.87;25.20;;;;;;;;;;5051249;28;20404;-62
2024/01/13 11:48:30;;;;;;;23.57;21.07;;;;;;;;;;5034015;28;20457;-61
2024/01/13 11:50:55;;;;;;;27.02;24.42;;;;;;;;;;5046887;28;20585;-62
2024/01/13 11:53:35;;;;;;;27.40;24.60;;;;;;;;;;5049541;28;20780;-62
2024/01/13 11:56:00;;;;;;;29.90;26.80;;;;;;;;;;5051761;28;20900;-62
2024/01/13 11:58:25;;;;;;;31.03;27.93;;;;;;;;;;5050619;28;20412;-62
2024/01/13 12:00:51;;;;;;;26.77;21.67;;;;;;;;;;5051591;28;20884;-62
2024/01/13 12:03:16;;;;;;;53.10;48.23;;;;;;;;;;5050638;28;20775;-62
2024/01/13 12:05:41;;;;;;;20.87;15.90;;;;;;;;;;5032314;28;20389;-62
2024/01/13 12:08:07;;;;;;;20.47;16.00;;;;;;;;;;5051028;28;20398;-62
2024/01/13 12:10:40;;;;;;;21.27;16.15;;;;;;;;;;5033919;28;20405;-63
2024/01/13 12:13:13;;;;;;;19.60;15.80;;;;;;;;;;5049175;28;20409;-62
2024/01/13 12:15:41;;;;;;;21.02;16.10;;;;;;;;;;5033520;28;20404;-62
2024/01/13 12:18:06;;;;;;;23.35;16.63;;;;;;;;;;5050655;28;20404;-62
2024/01/13 12:20:32;;;;;;;22.00;17.47;;;;;;;;;;5050190;28;20405;-62
2024/01/13 12:22:57;;;;;;;21.07;16.77;;;;;;;;;;5032579;28;20768;-62
2024/01/13 12:25:22;;;;;;;22.97;17.27;;;;;;;;;;5032961;28;20405;-62
2024/01/13 12:27:48;;;;;;;22.42;17.83;;;;;;;;;;5050175;28;20509;-62
2024/01/13 12:30:18;;;;;;;22.03;16.93;;;;;;;;;;5050541;28;20489;-62
2024/01/13 12:32:43;;;;;;;22.00;17.42;;;;;;;;;;5050510;28;20443;-62
2024/01/13 12:35:09;;;;;;;24.00;18.53;;;;;;;;;;5049560;28;20437;-62
2024/01/13 12:37:34;;;;;;;23.92;18.52;;;;;;;;;;5032399;28;20897;-62
2024/01/13 12:39:59;;;;;;;22.43;18.07;;;;;;;;;;5047176;28;20408;-62
2024/01/13 12:42:25;;;;;;;23.23;18.20;;;;;;;;;;5050580;28;20406;-62
2024/01/13 12:44:50;;;;;;;22.60;17.98;;;;;;;;;;5051240;28;20804;-62
2024/01/13 12:47:16;;;;;;;22.33;17.60;;;;;;;;;;5049764;28;20468;-61
2024/01/13 12:49:41;;;;;;;23.65;19.70;;;;;;;;;;5049946;28;20409;-62
2024/01/13 12:52:08;;;;;;;25.57;20.27;;;;;;;;;;5050523;28;20459;-62
2024/01/13 12:54:33;;;;;;;26.77;20.73;;;;;;;;;;5050238;28;20428;-63
2024/01/13 12:56:59;;;;;;;25.17;19.42;;;;;;;;;;5050869;28;20907;-64
2024/01/13 12:59:25;;;;;;;26.13;19.60;;;;;;;;;;5050013;28;20388;-63
2024/01/13 13:01:50;;;;;;;23.83;19.33;;;;;;;;;;5052950;28;20499;-64
2024/01/13 13:04:15;;;;;;;26.73;20.30;;;;;;;;;;5049787;28;20393;-63
2024/01/13 13:06:42;;;;;;;25.10;20.50;;;;;;;;;;5032609;28;20796;-62
2024/01/13 13:09:10;;;;;;;25.90;19.67;;;;;;;;;;5049494;28;20405;-63
2024/01/13 13:11:35;;;;;;;27.73;21.33;;;;;;;;;;5032986;28;20742;-63
2024/01/13 13:14:00;;;;;;;27.48;21.42;;;;;;;;;;5050735;28;20470;-63
2024/01/13 13:16:26;;;;;;;26.77;21.13;;;;;;;;;;5049345;28;20864;-63
2024/01/13 13:18:51;;;;;;;29.87;22.00;;;;;;;;;;5045396;28;20429;-63
2024/01/13 13:21:16;;;;;;;27.13;20.70;;;;;;;;;;5054018;28;20799;-63
2024/01/13 13:23:44;;;;;;;31.60;24.60;;;;;;;;;;5053731;28;20472;-63
2024/01/13 13:26:09;;;;;;;41.90;30.23;;;;;;;;;;5054046;28;20953;-63
2024/01/13 13:28:36;;;;;;;34.80;25.47;;;;;;;;;;5054383;28;20458;-63
2024/01/13 13:31:03;;;;;;;39.95;31.08;;;;;;;;;;5053283;28;20940;-62
2024/01/13 13:33:29;;;;;;;40.78;28.85;;;;;;;;;;5054430;28;20442;-63
2024/01/13 13:35:54;;;;;;;67.30;43.40;;;;;;;;;;5054215;28;20405;-63
2024/01/13 13:38:19;;;;;;;34.53;26.40;;;;;;;;;;5052820;28;20464;-62
2024/01/13 13:40:45;;;;;;;43.27;32.73;;;;;;;;;;5054352;28;20406;-62
2024/01/13 13:43:10;;;;;;;31.30;24.02;;;;;;;;;;5052524;28;20417;-63
2024/01/13 13:45:35;;;;;;;30.53;22.60;;;;;;;;;;5046646;28;20400;-62
2024/01/13 13:48:01;;;;;;;31.90;23.40;;;;;;;;;;5021246;28;20767;-63
2024/01/13 13:50:30;;;;;;;30.27;23.43;;;;;;;;;;5022695;28;20771;-62
2024/01/13 13:52:55;;;;;;;29.03;22.43;;;;;;;;;;5041228;28;21215;-62
2024/01/13 13:55:21;;;;;;;30.13;22.90;;;;;;;;;;5054797;28;20995;-62
2024/01/13 13:57:46;;;;;;;34.37;24.47;;;;;;;;;;5027950;28;20391;-62
2024/01/13 14:00:12;;;;;;;31.37;23.93;;;;;;;;;;5027625;28;20399;-63
2024/01/13 14:02:38;;;;;;;30.50;23.43;;;;;;;;;;5029491;28;20456;-62
2024/01/13 14:05:05;;;;;;;30.60;23.70;;;;;;;;;;5041558;28;20401;-62
2024/01/13 14:07:30;;;;;;;30.40;24.33;;;;;;;;;;5047482;28;20405;-62
2024/01/13 14:09:55;;;;;;;30.20;23.10;;;;;;;;;;5057728;28;20409;-62
2024/01/13 14:12:21;;;;;;;30.33;23.40;;;;;;;;;;5038426;28;20500;-62
2024/01/13 14:14:46;;;;;;;31.33;24.10;;;;;;;;;;5040142;28;20405;-62